Weather at Hopkins Police Heliport [CLOSED]

Public forecast

Using degrees Fahrenheit for public forecast. Weather courtesy of forecast.io.

Closest aviation weather report (METAR) to Hopkins Police Heliport

Closest report is Flying Cloud Airport, 5.6 nm (10.4 km) SSW. Retrieved 2021/07/24 23:53 UTC (18 minutes ago):

KFCM 242353Z 32010G18KT 9SM CLR 31/09 A2990 RMK AO2 SLP120 T03060089 10328 20294 52001

Closest aviation forecast (TAF) to Hopkins Police Heliport

Forecast is more than 12 hours old.

Closest forecast is Flying Cloud Airport, 5.6 nm (10.4 km) SSW. Retrieved 2018/02/05 00:21 UTC (3 years ago):

TAF KFCM 052320Z 0600/0624 30007KT P6SM FEW200 FM061000 VRB03KT P6SM FEW250 FM061800 22006KT P6SM SCT100 BKN250 AMD NOT SKED